• Join FlightAware (Why Join?)
  • Login
  • US Flag 
09:33PM EDT


 

Airport Tracker/Info


-or-


 

Live Flight TrackerFlight Track Log ✈ TAM3228 ✈ 16-Oct-2013 ✈ SBSP / CGH - SBUL / UDI

Flight Track Log - Related Links

Times and Time Zones

All times are in EDT time to prevent confusion due to time zone crossing. See the TAM3228 flight status page for this flight to view local times or setup timezone preferences in your user account.

Time Position Orientation Groundspeed Altitude Reporting Facility
EDT Latitude Longitude Course Direction KTS MPH feet Rate Location/Type
09:20PM -20.2831 -47.7729 343° North  Level Estimated
09:21PM -20.2134 -47.7956 343° North  Level Estimated
09:22PM -20.1437 -47.8184 343° North  Level Estimated
09:23PM -20.0739 -47.8410 343° North  Level Estimated
09:24PM -20.0042 -47.8637 343° North  Level Estimated
09:25PM -19.9344 -47.8864 343° North  Level Estimated
09:26PM -19.8647 -47.9090 343° North  Level Estimated
09:27PM -19.7949 -47.9316 343° North  Level Estimated
09:28PM -19.7252 -47.9543 343° North  Level Estimated
09:29PM -19.6554 -47.9768 343° North  Level Estimated
09:30PM -19.5857 -47.9994 343° North  Level Estimated
09:31PM -19.5159 -48.0219 343° North  Level Estimated
09:32PM -19.4461 -48.0445 343° North  Level Estimated
09:33PM -19.3764 -48.0670 343° North  Level Estimated
09:34PM -19.3066 -48.0895 343° North  Level Estimated
09:35PM -19.2368 -48.1119 343° North  Level Estimated
09:36PM -19.1670 -48.1344 343° North  Level Estimated
09:37PM -19.0973 -48.1568 343° North  Level Estimated
09:38PM -19.0275 -48.1792 343° North  Level Estimated
09:39PM -18.9577 -48.2016 343° North  Level Estimated
09:40PM -18.8879 -48.2240 343° North  Level Estimated
09:41PM -18.8828 -48.2256 343° North  Level Estimated
09:42PM -18.8828 -48.2256 223° Southwest  Level Estimated
09:43PM -18.8828 -48.2256 223° Southwest  Level Estimated
09:44PM -18.8828 -48.2256 223° Southwest  Level Estimated
09:45PM -18.8828 -48.2256 223° Southwest  Level Estimated
09:46PM -18.8828 -48.2256 223° Southwest  Level Estimated
09:47PM -18.8828 -48.2256 223° Southwest  Level Estimated
09:48PM -18.8828 -48.2256 223° Southwest  Level Estimated
09:49PM -18.8828 -48.2256 223° Southwest  Level Estimated
09:50PM -18.8828 -48.2256 223° Southwest  Level Estimated
09:51PM -18.8828 -48.2256 223° Southwest  Level Estimated
09:52PM -18.8828 -48.2256 223° Southwest  Level Estimated
09:53PM -18.8828 -48.2256 223° Southwest  Level Estimated
09:54PM -18.8828 -48.2256 223° Southwest  Level Estimated
09:55PM -18.8828 -48.2256 223° Southwest  Level Estimated
09:56PM -18.8828 -48.2256 223° Southwest  Level Estimated